Aérodrome :
LOGIN :

S'inscrire | Disclaimer

   EN    FR    IT 

 










Légende :    VFR   VFR Marginal   IFR   IFR Intensif   IFR Très Intensif
Visi : 
Plafond : 
>= 8 km
>= 3000ft
5 à 8 km
1000 à 3000 ft
1500m à 5 km
500 à 1000 ft
800 à 1500m
200 à 500 ft
< 800m
< 200 ft
Symboles :   Orages  Brouillard  Fortes neiges  Fortes précipitations  Vent > 20 kt
SIGMETs :   Divers  Orages  Givrage  Turbulence  Onde Orograph.  Cendres Volcan.







- Altitude de l'aérodrome : 20 ft


EBFN - Koksijde

DERNIER METAR :
  • 231555Z 25031G42KT 9999 FEW025 BKN060 10/03 Q0993 BLU BLU TEMPO WHT

METARs EXPIRÉS :
  • 231525Z 26033G45KT 9999 FEW025 BKN060 10/02 Q0993 BLU BLU TEMPO WHT
  • 231455Z 26034G49KT 9999 FEW025 BKN065 11/02 Q0993 BLU BLU TEMPO WHT
  • 231425Z 26032G42KT 9999 FEW025 11/03 Q0992 BLU BLU TEMPO WHT
  • 231355Z 25035G50KT 9999 FEW025 11/04 Q0992 BLU BLU TEMPO WHT
  • 231325Z 25036G50KT 9999 FEW025 11/04 Q0992 BLU BLU TEMPO WHT

TAF TAF EBFN
Valide du 23 à 13h jusqu'au 23 à 22h UTC


231141Z 2313/2322 24035G45KT 9999 FEW015 SCT025
TEMPO 2313/2322 29035G50KT 5000 SHRA SCT015TCU BKN055
BECMG 2320/2322 29022G32KT
Pas de NOTAMs connus pour ce terrain.
2 SIGMETs publiés pour la FIR Brussels (EBBU) :
 
Turbulence forte
EBBU SIGMET 04 VALID 231600/232000 EBBR
EBBU BRUSSELS FIR SEV TURB FCST ENTIRE FIR SFC/FL050 MOV E 25KT NC=
Turbulence forte
EBBU SIGMET 03 VALID 231200/231600 EBBR
EBBU BRUSSELS FIR SEV TURB FCST ENTIRE FIR SFC/FL050 MOV E 25KT NC=



MET'MAP, la Météo Aéronautique d'un coup d'oeil ! - Copyright ORBIFLY Décembre 2007 - Disclaimer

ORBIFLY MET'MAP TEAM :

Programmation & Développement : Alexandra Zaïnal
Conception & Développement : Baudouin d'Aumeries
Co-Programmation & Développement : Marc-Olivier Méhu
Soutien technique & logistique : Manuel Goepfert

Contact : metmap@orbifly.com




SOURCES & CREDITS :

   NOAA